Time;durP1;ratioP1;P1;durP2;ratioP2;P2;SDS_P1;SDS_P2;PMS_P1;PMS_P2;Temp;Humidity;BMP_temperature;BMP_pressure;BME280_temperature;BME280_humidity;BME280_pressure;Samples;Min_cycle;Max_cycle;Signal;HPM_P1;HPM_P2
2023/03/22 00:00:46;;;;;;;11.03;9.80;;;;;21.20;99976.00;;;;2026991;28;20219;-74
2023/03/22 00:01:46;;;;;;;13.53;9.83;;;;;21.20;99926.00;;;;2030045;28;20217;-75
2023/03/22 00:02:46;;;;;;;11.50;10.30;;;;;21.20;99960.00;;;;2032693;28;20297;-74
2023/03/22 00:03:47;;;;;;;9.50;8.60;;;;;21.20;99973.00;;;;2031685;28;20221;-74
2023/03/22 00:04:47;;;;;;;10.70;9.50;;;;;21.10;99899.00;;;;2030051;28;20224;-75
2023/03/22 00:05:48;;;;;;;10.13;8.77;;;;;21.10;99925.00;;;;2031829;28;20209;-75
2023/03/22 00:06:48;;;;;;;10.40;8.93;;;;;21.10;99979.00;;;;2031982;28;20259;-74
2023/03/22 00:07:49;;;;;;;10.57;8.77;;;;;21.20;99964.00;;;;2030990;28;20304;-75
2023/03/22 00:08:50;;;;;;;11.90;9.40;;;;;21.20;99953.00;;;;2034469;28;20680;-74
2023/03/22 00:09:50;;;;;;;11.02;9.30;;;;;21.20;99969.00;;;;2037924;28;20360;-73
2023/03/22 00:10:51;;;;;;;10.70;9.07;;;;;21.20;99969.00;;;;2040647;28;20646;-74
2023/03/22 00:11:51;;;;;;;11.27;9.60;;;;;21.20;99872.00;;;;2039645;28;20997;-74
2023/03/22 00:12:51;;;;;;;10.70;8.40;;;;;21.10;99941.00;;;;2037316;28;20243;-74
2023/03/22 00:13:52;;;;;;;9.13;8.23;;;;;21.10;99968.00;;;;2039030;28;20213;-73
2023/03/22 00:14:53;;;;;;;8.80;7.20;;;;;21.10;99926.00;;;;2040901;28;20213;-74
2023/03/22 00:15:54;;;;;;;10.05;8.95;;;;;21.10;99912.00;;;;2038726;28;20220;-74
2023/03/22 00:16:55;;;;;;;9.87;8.87;;;;;21.10;99961.00;;;;2040107;28;20217;-74
2023/03/22 00:17:57;;;;;;;10.10;8.67;;;;;21.10;99946.00;;;;2040214;28;20260;-75
2023/03/22 00:18:58;;;;;;;9.13;8.18;;;;;21.10;99967.00;;;;2038099;28;20231;-74
2023/03/22 00:19:58;;;;;;;8.83;7.93;;;;;21.10;99944.00;;;;2039692;28;20237;-74
2023/03/22 00:20:58;;;;;;;11.10;8.23;;;;;21.10;99944.00;;;;2038871;28;20220;-75
2023/03/22 00:22:00;;;;;;;9.70;8.70;;;;;21.10;99958.00;;;;2038093;28;20669;-74
2023/03/22 00:23:00;;;;;;;9.07;7.70;;;;;21.10;99959.00;;;;2038885;28;20576;-74
2023/03/22 00:24:00;;;;;;;10.00;8.47;;;;;21.10;99961.00;;;;2039475;28;20256;-74
2023/03/22 00:25:01;;;;;;;9.53;7.30;;;;;21.10;99916.00;;;;2038341;28;20252;-74
2023/03/22 00:26:01;;;;;;;8.90;8.00;;;;;21.10;99961.00;;;;2038286;28;20216;-74
2023/03/22 00:27:02;;;;;;;8.83;7.93;;;;;21.10;99952.00;;;;2037234;28;20247;-74
2023/03/22 00:28:02;;;;;;;8.53;7.37;;;;;21.10;99912.00;;;;2017227;28;20312;-74
2023/03/22 00:29:03;;;;;;;10.13;7.47;;;;;21.10;99956.00;;;;2040039;28;20465;-74
2023/03/22 00:30:04;;;;;;;9.83;7.43;;;;;21.10;99915.00;;;;2041038;28;20740;-74
2023/03/22 00:31:04;;;;;;;8.10;7.15;;;;;21.10;99879.00;;;;2038954;28;20217;-74
2023/03/22 00:32:05;;;;;;;7.90;6.53;;;;;21.10;99949.00;;;;2038702;28;20684;-74
2023/03/22 00:33:05;;;;;;;8.27;6.93;;;;;21.00;99951.00;;;;2039769;28;20228;-74
2023/03/22 00:34:05;;;;;;;8.13;7.00;;;;;21.10;99911.00;;;;2039212;28;20216;-74
2023/03/22 00:35:06;;;;;;;7.80;6.80;;;;;21.10;99944.00;;;;2050889;28;20749;-74
2023/03/22 00:36:08;;;;;;;6.60;5.90;;;;;21.00;99944.00;;;;2036252;28;20208;-74
2023/03/22 00:37:09;;;;;;;9.05;7.18;;;;;21.00;99951.00;;;;2038912;28;20673;-74
2023/03/22 00:38:13;;;;;;;7.30;6.57;;;;;21.00;99930.00;;;;2038423;28;20220;-74
2023/03/22 00:39:13;;;;;;;7.30;6.43;;;;;21.10;99964.00;;;;2039465;28;20274;-74
2023/03/22 00:40:14;;;;;;;7.50;6.60;;;;;21.10;99947.00;;;;2033439;28;20496;-74
2023/03/22 00:41:16;;;;;;;6.97;6.27;;;;;21.10;99940.00;;;;2030007;28;20637;-74
2023/03/22 00:42:17;;;;;;;7.55;6.20;;;;;21.10;99847.00;;;;2039323;28;20465;-74
2023/03/22 00:43:17;;;;;;;6.63;6.00;;;;;21.00;99944.00;;;;2039172;28;20223;-75
2023/03/22 00:44:17;;;;;;;6.33;5.73;;;;;21.00;99942.00;;;;2039572;28;20224;-74
2023/03/22 00:45:18;;;;;;;8.23;6.57;;;;;21.00;99948.00;;;;2040438;28;20279;-74
2023/03/22 00:46:19;;;;;;;6.80;6.10;;;;;21.00;99941.00;;;;2038889;28;20221;-74
2023/03/22 00:47:19;;;;;;;6.83;6.07;;;;;21.00;99942.00;;;;2038026;28;20307;-74
2023/03/22 00:48:19;;;;;;;6.60;5.57;;;;;21.00;99940.00;;;;2038256;28;20445;-75
2023/03/22 00:49:20;;;;;;;7.30;5.80;;;;;21.00;99933.00;;;;2034188;28;20236;-74
2023/03/22 00:50:21;;;;;;;7.10;5.83;;;;;21.00;99910.00;;;;2039476;28;20221;-74
2023/03/22 00:51:21;;;;;;;6.30;5.20;;;;;21.00;99930.00;;;;2038630;28;20835;-74
2023/03/22 00:52:21;;;;;;;6.57;5.87;;;;;21.00;99869.00;;;;2038865;28;20237;-74
2023/03/22 00:53:22;;;;;;;7.50;6.07;;;;;21.00;99866.00;;;;2037707;28;20229;-74
2023/03/22 00:54:22;;;;;;;6.40;5.80;;;;;21.00;99933.00;;;;2037287;28;20299;-74
2023/03/22 00:55:22;;;;;;;6.93;6.10;;;;;21.00;99851.00;;;;2037721;28;20217;-74
2023/03/22 00:56:24;;;;;;;5.90;5.17;;;;;21.00;99928.00;;;;2031872;28;20213;-74
2023/03/22 00:57:24;;;;;;;6.15;5.15;;;;;21.00;99925.00;;;;2039710;28;20216;-75
2023/03/22 00:58:25;;;;;;;5.93;5.33;;;;;21.00;99917.00;;;;2040914;28;20212;-74
2023/03/22 00:59:27;;;;;;;6.77;5.70;;;;;21.00;99924.00;;;;2016869;28;20691;-74
2023/03/22 01:00:27;;;;;;;5.95;5.00;;;;;21.00;99914.00;;;;2039773;28;20240;-74
2023/03/22 01:01:27;;;;;;;5.83;5.30;;;;;21.00;99917.00;;;;2039548;28;20680;-74
2023/03/22 01:02:28;;;;;;;5.47;4.83;;;;;21.00;99917.00;;;;2037838;28;20229;-74
2023/03/22 01:03:28;;;;;;;8.33;5.90;;;;;21.00;99914.00;;;;2039167;28;20213;-74
2023/03/22 01:04:30;;;;;;;6.10;5.07;;;;;21.00;99914.00;;;;2029095;28;20653;-73
2023/03/22 01:05:32;;;;;;;7.30;5.50;;;;;21.00;99903.00;;;;2046234;28;20264;-74
2023/03/22 01:06:32;;;;;;;6.70;5.55;;;;;21.00;99912.00;;;;2041505;28;20235;-75
2023/03/22 01:07:33;;;;;;;5.90;5.30;;;;;21.00;99907.00;;;;2038498;28;20312;-74
2023/03/22 01:08:37;;;;;;;6.00;5.30;;;;;21.00;99892.00;;;;2039028;28;20295;-74
2023/03/22 01:09:37;;;;;;;5.32;4.80;;;;;21.00;99912.00;;;;2038782;28;20248;-75
2023/03/22 01:10:38;;;;;;;6.57;5.40;;;;;21.00;99909.00;;;;2038647;28;20228;-74
2023/03/22 01:11:41;;;;;;;5.93;5.32;;;;;21.00;99906.00;;;;2037876;28;20625;-74
2023/03/22 01:12:42;;;;;;;6.30;5.50;;;;;21.00;99861.00;;;;2039700;28;20220;-74
2023/03/22 01:13:42;;;;;;;6.03;4.60;;;;;21.00;99912.00;;;;2040846;28;20213;-74
2023/03/22 01:14:43;;;;;;;6.00;4.83;;;;;21.00;99909.00;;;;2038484;28;20212;-74
2023/03/22 01:15:43;;;;;;;6.60;5.30;;;;;20.90;99878.00;;;;2039034;28;20251;-75
2023/03/22 01:16:44;;;;;;;6.43;4.93;;;;;20.90;99897.00;;;;2039720;28;20225;-75
2023/03/22 01:17:44;;;;;;;5.57;5.03;;;;;21.00;99862.00;;;;2038200;28;20271;-75
2023/03/22 01:18:44;;;;;;;6.40;4.70;;;;;20.90;99891.00;;;;2039365;28;20712;-75
2023/03/22 01:19:45;;;;;;;4.93;4.50;;;;;20.90;99875.00;;;;2037609;29;20220;-75
2023/03/22 01:20:45;;;;;;;5.03;4.53;;;;;20.90;99902.00;;;;2038905;29;20688;-75
2023/03/22 01:21:45;;;;;;;6.50;4.77;;;;;20.90;99874.00;;;;2039502;28;20709;-75
2023/03/22 01:22:46;;;;;;;5.83;4.57;;;;;20.90;99899.00;;;;2036706;28;20698;-75
2023/03/22 01:23:46;;;;;;;5.70;5.10;;;;;20.90;99880.00;;;;2039610;28;20217;-75
2023/03/22 01:24:48;;;;;;;6.20;4.93;;;;;20.90;99891.00;;;;2037412;28;20212;-74
2023/03/22 01:25:49;;;;;;;7.60;5.50;;;;;20.90;99895.00;;;;2040290;28;20213;-75
2023/03/22 01:26:49;;;;;;;5.13;4.00;;;;;20.90;99898.00;;;;2038813;28;20692;-75
2023/03/22 01:27:49;;;;;;;5.63;4.87;;;;;20.90;99821.00;;;;2029227;28;20221;-74
2023/03/22 01:28:50;;;;;;;5.30;4.80;;;;;20.90;99891.00;;;;2035944;28;20279;-75
2023/03/22 01:29:50;;;;;;;5.40;4.90;;;;;20.90;99819.00;;;;2038033;28;20641;-74
2023/03/22 01:30:50;;;;;;;5.30;4.70;;;;;20.90;99849.00;;;;2037098;28;20224;-75
2023/03/22 01:31:51;;;;;;;6.33;5.00;;;;;20.90;99827.00;;;;2038438;28;20217;-75
2023/03/22 01:32:51;;;;;;;4.93;4.20;;;;;20.90;99826.00;;;;2036981;28;20232;-74
2023/03/22 01:33:51;;;;;;;5.90;4.30;;;;;20.90;99844.00;;;;2039621;28;20224;-72
2023/03/22 01:34:52;;;;;;;6.03;4.73;;;;;20.90;99887.00;;;;2026806;28;20263;-72
2023/03/22 01:35:52;;;;;;;5.63;4.77;;;;;20.90;99881.00;;;;2038158;29;20649;-72
2023/03/22 01:36:52;;;;;;;5.53;4.50;;;;;20.90;99884.00;;;;2037693;29;20673;-72
2023/03/22 01:37:53;;;;;;;5.23;4.60;;;;;20.90;99885.00;;;;2038670;28;20653;-72
2023/03/22 01:38:53;;;;;;;5.87;4.43;;;;;20.90;99881.00;;;;2040420;28;20723;-72
2023/03/22 01:39:54;;;;;;;6.30;4.83;;;;;20.90;99858.00;;;;2035165;28;20217;-73
2023/03/22 01:40:54;;;;;;;4.50;3.83;;;;;20.90;99881.00;;;;2039248;28;20225;-72
2023/03/22 01:41:54;;;;;;;5.40;4.33;;;;;20.90;99884.00;;;;2039202;28;20300;-72
2023/03/22 01:42:55;;;;;;;5.40;4.60;;;;;20.90;99874.00;;;;2037791;28;20228;-72
2023/03/22 01:44:17;;;;;;;6.10;4.30;;;;;20.90;99874.00;;;;2038894;28;20249;-73
2023/03/22 01:45:47;;;;;;;4.40;4.00;;;;;20.90;99848.00;;;;2029687;28;20225;-72
2023/03/22 01:46:48;;;;;;;4.68;4.20;;;;;20.90;99874.00;;;;2023747;28;20246;-72
2023/03/22 01:48:00;;;;;;;5.82;4.13;;;;;20.90;99869.00;;;;2029787;28;20681;-72
2023/03/22 01:49:04;;;;;;;4.63;4.13;;;;;20.90;99636.00;;;;2022872;29;20373;-72
2023/03/22 01:50:05;;;;;;;4.40;3.88;;;;;20.90;99864.00;;;;2029115;29;20232;-72
2023/03/22 01:51:12;;;;;;;4.43;4.03;;;;;20.90;99822.00;;;;2038028;28;20228;-72
2023/03/22 01:52:12;;;;;;;4.43;4.03;;;;;20.90;99849.00;;;;2026008;29;20281;-72
2023/03/22 01:53:13;;;;;;;5.57;4.50;;;;;20.90;99852.00;;;;2030682;29;20789;-72
2023/03/22 01:54:16;;;;;;;4.73;4.20;;;;;20.90;99862.00;;;;2033586;28;20797;-72
2023/03/22 01:55:17;;;;;;;4.20;3.75;;;;;20.90;99828.00;;;;2019556;29;20691;-72
2023/03/22 01:56:18;;;;;;;5.23;4.33;;;;;20.90;99829.00;;;;2022685;29;20222;-71
2023/03/22 01:57:18;;;;;;;4.38;3.92;;;;;20.90;99864.00;;;;2030804;29;20332;-72
2023/03/22 01:58:19;;;;;;;5.10;4.30;;;;;20.80;99830.00;;;;2028871;29;20879;-72
2023/03/22 01:59:19;;;;;;;4.50;3.90;;;;;20.90;99790.00;;;;2037966;28;20719;-72
2023/03/22 02:00:20;;;;;;;5.07;4.40;;;;;20.90;99846.00;;;;2019455;29;20296;-72
2023/03/22 02:01:20;;;;;;;4.70;4.20;;;;;20.90;99856.00;;;;2007214;29;20185;-72
2023/03/22 02:02:21;;;;;;;5.40;4.43;;;;;20.80;99818.00;;;;2020158;29;20222;-72
2023/03/22 02:03:42;;;;;;;5.47;4.60;;;;;20.80;99845.00;;;;2035913;29;20221;-72
2023/03/22 02:04:42;;;;;;;4.90;4.22;;;;;20.90;99846.00;;;;2035276;29;20691;-72
2023/03/22 02:05:43;;;;;;;4.60;4.20;;;;;20.80;99802.00;;;;2021300;29;20202;-72
2023/03/22 02:06:45;;;;;;;5.17;4.00;;;;;20.80;99826.00;;;;2030217;29;20241;-72
2023/03/22 02:07:46;;;;;;;4.30;3.88;;;;;20.90;99832.00;;;;2038149;29;20209;-72
2023/03/22 02:08:47;;;;;;;5.63;3.47;;;;;20.80;99827.00;;;;2029599;29;20639;-73
2023/03/22 02:09:47;;;;;;;4.50;3.80;;;;;20.80;99833.00;;;;2030329;29;20651;-73
2023/03/22 02:10:47;;;;;;;5.00;4.50;;;;;20.80;99834.00;;;;2036786;28;21035;-74
2023/03/22 02:12:05;;;;;;;4.80;4.27;;;;;20.80;99835.00;;;;2028954;28;20221;-73
2023/03/22 02:13:18;;;;;;;5.28;4.10;;;;;20.80;99838.00;;;;2028419;29;20232;-73
2023/03/22 02:14:27;;;;;;;6.45;4.25;;;;;20.80;99835.00;;;;2031322;29;20296;-73
2023/03/22 02:15:32;;;;;;;5.53;3.50;;;;;20.80;99775.00;;;;2029920;29;20773;-73
2023/03/22 02:16:56;;;;;;;4.30;3.80;;;;;20.80;99787.00;;;;2028989;29;20229;-73
2023/03/22 02:18:17;;;;;;;5.25;4.43;;;;;20.80;99830.00;;;;2028230;29;20221;-73
2023/03/22 02:19:33;;;;;;;4.90;4.25;;;;;20.80;99832.00;;;;2030736;28;20280;-73
2023/03/22 02:20:57;;;;;;;4.43;3.92;;;;;20.80;99827.00;;;;2030656;28;20229;-73
2023/03/22 02:22:38;;;;;;;4.10;3.67;;;;;20.80;99826.00;;;;2045582;28;20782;-74
2023/03/22 02:24:03;;;;;;;5.25;4.15;;;;;20.80;99826.00;;;;2036355;28;20232;-73
2023/03/22 02:25:10;;;;;;;3.95;3.55;;;;;20.80;99822.00;;;;2030883;28;20214;-73
2023/03/22 02:26:15;;;;;;;6.28;3.90;;;;;20.80;99818.00;;;;2019945;29;20225;-73
2023/03/22 02:27:33;;;;;;;4.97;4.57;;;;;20.80;99803.00;;;;2030884;29;20266;-73
2023/03/22 02:28:48;;;;;;;4.28;3.70;;;;;20.80;99821.00;;;;2030966;29;20221;-73
2023/03/22 02:30:16;;;;;;;4.50;4.00;;;;;20.80;99817.00;;;;2035525;28;20248;-73
2023/03/22 02:31:54;;;;;;;4.50;4.10;;;;;20.80;99817.00;;;;2028448;29;20773;-73
2023/03/22 02:33:00;;;;;;;4.05;3.53;;;;;20.80;99810.00;;;;2030761;28;20677;-73
2023/03/22 02:34:19;;;;;;;4.35;3.88;;;;;20.80;99813.00;;;;2029395;28;20751;-73
2023/03/22 02:35:30;;;;;;;4.90;4.22;;;;;20.80;99803.00;;;;2024539;28;20221;-73
2023/03/22 02:37:08;;;;;;;5.07;3.88;;;;;20.80;99809.00;;;;2036783;28;20217;-73
2023/03/22 02:38:20;;;;;;;4.00;3.60;;;;;20.70;99803.00;;;;2031357;28;20225;-73
2023/03/22 02:39:42;;;;;;;4.78;3.63;;;;;20.80;99799.00;;;;2030133;28;20225;-74
2023/03/22 02:41:20;;;;;;;4.68;4.18;;;;;20.70;99803.00;;;;2031331;28;20237;-73
2023/03/22 02:42:35;;;;;;;4.53;4.00;;;;;20.80;99797.00;;;;2028985;29;20288;-73
2023/03/22 02:43:40;;;;;;;4.85;3.95;;;;;20.70;99769.00;;;;2016068;29;20223;-73
2023/03/22 02:44:44;;;;;;;4.25;3.72;;;;;20.70;99791.00;;;;2020067;29;20214;-73
2023/03/22 02:45:55;;;;;;;4.28;3.58;;;;;20.70;99792.00;;;;2031070;29;20261;-73
2023/03/22 02:47:02;;;;;;;5.05;3.85;;;;;20.70;99778.00;;;;2026166;29;20334;-73
2023/03/22 02:48:08;;;;;;;4.07;3.42;;;;;20.70;99797.00;;;;2045981;28;20208;-73
2023/03/22 02:49:19;;;;;;;5.43;4.38;;;;;20.70;99756.00;;;;2045132;28;20231;-73
2023/03/22 02:50:45;;;;;;;3.95;3.58;;;;;20.70;99794.00;;;;2030417;29;20608;-73
2023/03/22 02:51:51;;;;;;;3.95;3.55;;;;;20.80;99761.00;;;;2032717;28;20228;-73
2023/03/22 02:53:13;;;;;;;4.18;3.78;;;;;20.70;99790.00;;;;2046131;28;20266;-73
2023/03/22 02:54:20;;;;;;;4.13;3.65;;;;;20.70;99775.00;;;;2036963;28;20715;-73
2023/03/22 02:55:26;;;;;;;4.97;3.92;;;;;20.70;99782.00;;;;2033239;28;20711;-73
2023/03/22 02:56:38;;;;;;;4.85;3.88;;;;;20.70;99733.00;;;;2039038;28;20242;-73
2023/03/22 02:57:44;;;;;;;4.30;3.70;;;;;20.70;99738.00;;;;2042449;28;20227;-73
2023/03/22 02:58:52;;;;;;;5.85;4.00;;;;;20.70;99771.00;;;;2038403;28;20581;-73
2023/03/22 02:59:52;;;;;;;5.38;3.45;;;;;20.70;99760.00;;;;2029602;29;20224;-74
2023/03/22 03:00:55;;;;;;;4.73;4.30;;;;;20.70;99758.00;;;;2037906;29;20212;-73
2023/03/22 03:01:57;;;;;;;3.70;3.35;;;;;20.70;99663.00;;;;2043655;28;20224;-73
2023/03/22 03:03:00;;;;;;;4.55;4.00;;;;;20.70;99774.00;;;;2028495;29;20213;-73
2023/03/22 03:04:03;;;;;;;4.05;3.60;;;;;20.70;99781.00;;;;2022336;29;20222;-73
2023/03/22 03:05:04;;;;;;;4.75;4.03;;;;;20.60;99774.00;;;;2022395;29;20859;-73
2023/03/22 03:06:07;;;;;;;6.53;4.50;;;;;20.70;99752.00;;;;2030546;29;20277;-73
2023/03/22 03:07:08;;;;;;;4.00;3.60;;;;;20.70;99744.00;;;;2028596;29;20308;-73
2023/03/22 03:08:09;;;;;;;4.40;3.97;;;;;20.70;99780.00;;;;2022045;29;20249;-73
2023/03/22 03:09:12;;;;;;;4.40;4.00;;;;;20.70;99771.00;;;;2030038;29;20225;-73
2023/03/22 03:10:14;;;;;;;4.40;3.50;;;;;20.70;99780.00;;;;2029026;29;20647;-73
2023/03/22 03:11:14;;;;;;;5.95;3.90;;;;;20.70;99775.00;;;;2027156;29;20224;-73
2023/03/22 03:12:20;;;;;;;4.20;3.83;;;;;20.70;99781.00;;;;2038564;28;20225;-71
2023/03/22 03:13:20;;;;;;;5.22;3.75;;;;;20.70;99782.00;;;;2034964;28;20256;-72
2023/03/22 03:14:22;;;;;;;4.20;3.77;;;;;20.70;99763.00;;;;2034660;28;20221;-73
2023/03/22 03:15:22;;;;;;;5.43;3.92;;;;;20.60;99749.00;;;;2037252;28;20216;-74
2023/03/22 03:16:26;;;;;;;8.23;4.10;;;;;20.70;99762.00;;;;2044489;28;20212;-72
2023/03/22 03:17:29;;;;;;;6.35;3.88;;;;;20.70;99772.00;;;;2043680;28;20219;-74
2023/03/22 03:18:50;;;;;;;5.30;3.45;;;;;20.80;99660.00;;;;2030793;28;20364;-75
2023/03/22 03:20:33;;;;;;;3.45;3.00;;;;;20.80;99775.00;;;;2028969;28;20562;-75
2023/03/22 03:21:41;;;;;;;5.18;3.10;;;;;20.80;99754.00;;;;2005620;28;20220;-76
2023/03/22 03:22:56;;;;;;;3.90;3.38;;;;;20.80;99776.00;;;;2036662;28;20566;-76
2023/03/22 03:24:19;;;;;;;6.50;3.50;;;;;20.80;99745.00;;;;2044538;28;20224;-76
2023/03/22 03:25:47;;;;;;;4.80;3.47;;;;;20.50;99771.00;;;;2045855;28;20227;-77
2023/03/22 03:26:59;;;;;;;5.35;3.55;;;;;20.80;99768.00;;;;2042270;28;20223;-76
2023/03/22 03:28:08;;;;;;;4.22;3.50;;;;;20.80;99762.00;;;;2037535;28;20221;-69
2023/03/22 03:29:32;;;;;;;5.75;3.88;;;;;20.80;99771.00;;;;2021171;29;20221;-69
2023/03/22 03:30:39;;;;;;;4.38;3.80;;;;;20.80;99775.00;;;;2042666;28;20650;-69
2023/03/22 03:31:41;;;;;;;4.25;3.42;;;;;20.70;99771.00;;;;2044660;28;20403;-69
2023/03/22 03:32:51;;;;;;;6.68;4.10;;;;;20.70;99776.00;;;;2026109;29;20244;-69
2023/03/22 03:34:03;;;;;;;4.20;3.80;;;;;20.70;99771.00;;;;2031007;29;20269;-69
2023/03/22 03:35:26;;;;;;;4.30;3.90;;;;;20.70;99761.00;;;;2022567;28;20274;-69
2023/03/22 03:36:27;;;;;;;4.65;3.70;;;;;20.70;99772.00;;;;2038169;28;20836;-70
2023/03/22 03:37:34;;;;;;;7.30;3.50;;;;;20.70;99764.00;;;;2023597;29;20229;-69
2023/03/22 03:38:36;;;;;;;4.03;3.33;;;;;20.70;99762.00;;;;2030139;29;20220;-69
2023/03/22 03:39:40;;;;;;;3.90;3.45;;;;;20.70;99767.00;;;;2044040;28;20244;-69
2023/03/22 03:40:42;;;;;;;7.22;4.00;;;;;20.70;99756.00;;;;2023397;29;20985;-69
2023/03/22 03:41:43;;;;;;;4.10;3.40;;;;;20.70;99739.00;;;;2031959;29;20627;-69
2023/03/22 03:42:47;;;;;;;6.33;3.00;;;;;20.80;99758.00;;;;2041214;28;20205;-71
2023/03/22 03:43:47;;;;;;;4.00;3.45;;;;;20.80;99732.00;;;;2030503;29;20214;-70
2023/03/22 03:44:48;;;;;;;6.10;2.93;;;;;20.80;99740.00;;;;2020732;29;20686;-69
2023/03/22 03:45:48;;;;;;;4.37;2.63;;;;;20.80;99756.00;;;;2023135;29;20210;-69
2023/03/22 03:46:49;;;;;;;5.63;3.40;;;;;20.80;99747.00;;;;2029917;29;20212;-68
2023/03/22 03:47:55;;;;;;;7.73;3.60;;;;;20.80;99752.00;;;;2012866;29;20229;-69
2023/03/22 03:48:56;;;;;;;4.90;3.70;;;;;20.80;99771.00;;;;2022746;29;20466;-68
2023/03/22 03:49:56;;;;;;;8.00;3.67;;;;;20.80;99729.00;;;;2014272;29;20294;-67
2023/03/22 03:50:57;;;;;;;5.77;4.13;;;;;20.80;99755.00;;;;2030111;29;20756;-68
2023/03/22 03:51:57;;;;;;;4.60;3.60;;;;;20.70;99749.00;;;;2020084;29;20324;-68
2023/03/22 03:52:58;;;;;;;7.03;3.80;;;;;20.70;99750.00;;;;2043073;28;20231;-68
2023/03/22 03:53:58;;;;;;;4.40;4.00;;;;;20.70;99752.00;;;;2030462;29;20233;-67
2023/03/22 03:54:58;;;;;;;7.27;3.53;;;;;20.70;99752.00;;;;2029073;29;20226;-67
2023/03/22 03:55:59;;;;;;;4.40;3.60;;;;;20.70;99729.00;;;;2030378;28;20214;-67
2023/03/22 03:57:00;;;;;;;4.90;3.87;;;;;20.70;99723.00;;;;2043869;28;20233;-68
2023/03/22 03:58:00;;;;;;;3.60;3.17;;;;;20.70;99748.00;;;;2045564;28;20210;-69
2023/03/22 03:59:00;;;;;;;4.40;4.00;;;;;20.70;99728.00;;;;2031320;28;21042;-68
2023/03/22 04:00:01;;;;;;;4.67;4.00;;;;;20.70;99713.00;;;;2041664;28;20564;-68
2023/03/22 04:01:02;;;;;;;4.57;4.17;;;;;20.70;99754.00;;;;2036604;28;20673;-68
2023/03/22 04:02:04;;;;;;;6.70;4.35;;;;;20.70;99759.00;;;;2018298;29;20681;-68
2023/03/22 04:03:05;;;;;;;6.60;5.90;;;;;20.60;99757.00;;;;2028515;28;20268;-68
2023/03/22 04:04:05;;;;;;;8.03;7.23;;;;;20.60;99750.00;;;;2045483;28;20220;-68
2023/03/22 04:05:06;;;;;;;9.30;8.07;;;;;20.60;99753.00;;;;2031421;28;20248;-68
2023/03/22 04:06:07;;;;;;;16.00;11.27;;;;;19.50;99744.00;;;;2029040;28;20213;-68
2023/03/22 04:07:08;;;;;;;16.70;12.67;;;;;20.60;99751.00;;;;2030025;28;20218;-68
2023/03/22 04:08:08;;;;;;;17.47;15.77;;;;;20.60;99708.00;;;;2024001;29;20465;-68
2023/03/22 04:09:08;;;;;;;18.53;16.70;;;;;20.60;99680.00;;;;2029810;29;20279;-68
2023/03/22 04:10:09;;;;;;;22.80;19.57;;;;;20.60;99753.00;;;;2025612;29;20217;-68
2023/03/22 04:11:09;;;;;;;22.87;20.47;;;;;20.60;99749.00;;;;2031149;28;20214;-68
2023/03/22 04:12:10;;;;;;;25.07;22.30;;;;;20.60;99740.00;;;;2026393;29;20214;-68
2023/03/22 04:13:10;;;;;;;29.83;24.70;;;;;20.60;99738.00;;;;2032474;29;20591;-68
2023/03/22 04:14:10;;;;;;;30.83;27.53;;;;;20.60;99728.00;;;;2021756;29;20260;-68
2023/03/22 04:15:11;;;;;;;34.63;30.37;;;;;20.60;99742.00;;;;2028624;28;20217;-68
2023/03/22 04:16:11;;;;;;;39.87;33.23;;;;;20.60;99757.00;;;;2029993;29;20221;-68
2023/03/22 04:17:11;;;;;;;37.33;33.43;;;;;20.60;99741.00;;;;2030077;29;20659;-68
2023/03/22 04:18:12;;;;;;;45.00;37.23;;;;;20.60;99740.00;;;;2010154;28;20190;-68
2023/03/22 04:19:12;;;;;;;48.33;38.50;;;;;20.60;99745.00;;;;2031581;28;20224;-68
2023/03/22 04:20:13;;;;;;;47.90;40.57;;;;;20.60;99750.00;;;;2028685;28;20221;-69
2023/03/22 04:21:15;;;;;;;49.80;41.37;;;;;20.60;99745.00;;;;2026562;28;20292;-68
2023/03/22 04:22:17;;;;;;;51.15;42.97;;;;;20.60;99757.00;;;;2028779;28;20300;-68
2023/03/22 04:23:21;;;;;;;50.08;42.05;;;;;20.60;99754.00;;;;2026677;28;20305;-68
2023/03/22 04:24:21;;;;;;;53.60;45.58;;;;;20.60;99728.00;;;;2026497;28;20221;-68
2023/03/22 04:25:21;;;;;;;54.47;44.07;;;;;20.60;99745.00;;;;2022280;29;20226;-69
2023/03/22 04:26:22;;;;;;;55.17;44.30;;;;;20.60;99750.00;;;;2029882;29;20286;-68
2023/03/22 04:27:22;;;;;;;54.03;44.30;;;;;20.60;99731.00;;;;2028577;29;20217;-68
2023/03/22 04:28:22;;;;;;;55.43;46.07;;;;;20.60;99740.00;;;;2029226;28;20217;-68
2023/03/22 04:29:23;;;;;;;56.30;45.23;;;;;20.60;99731.00;;;;2030715;28;20240;-68
2023/03/22 04:30:26;;;;;;;58.47;45.30;;;;;20.60;99721.00;;;;2028573;28;20245;-68
2023/03/22 04:31:26;;;;;;;55.60;46.33;;;;;20.60;99739.00;;;;2029880;28;20229;-68
2023/03/22 04:32:26;;;;;;;58.00;45.70;;;;;20.60;99743.00;;;;2009726;28;20585;-67
2023/03/22 04:33:27;;;;;;;54.30;44.00;;;;;20.60;99728.00;;;;2029336;28;20599;-68
2023/03/22 04:34:27;;;;;;;53.83;44.50;;;;;20.50;99740.00;;;;2030650;28;20697;-69
2023/03/22 04:35:28;;;;;;;54.30;43.87;;;;;20.50;99737.00;;;;2028247;28;20716;-67
2023/03/22 04:36:29;;;;;;;56.63;46.33;;;;;20.60;99681.00;;;;2028891;28;20792;-68
2023/03/22 04:37:32;;;;;;;57.38;46.15;;;;;20.50;99732.00;;;;2027140;28;20221;-68
2023/03/22 04:38:33;;;;;;;55.60;45.60;;;;;20.50;99732.00;;;;2031181;28;20217;-68
2023/03/22 04:39:33;;;;;;;58.73;46.10;;;;;20.60;99738.00;;;;2031360;28;20222;-68
2023/03/22 04:40:37;;;;;;;63.50;50.03;;;;;20.30;99728.00;;;;2011278;28;20229;-67
2023/03/22 04:41:37;;;;;;;64.20;50.50;;;;;20.50;99734.00;;;;2032775;28;20229;-68
2023/03/22 04:42:38;;;;;;;63.73;50.37;;;;;20.50;99732.00;;;;2031332;28;20224;-68
2023/03/22 04:43:38;;;;;;;63.20;50.13;;;;;20.50;99724.00;;;;2027394;28;20221;-67
2023/03/22 04:44:38;;;;;;;61.67;51.27;;;;;20.50;99742.00;;;;2035210;28;20240;-68
2023/03/22 04:45:40;;;;;;;64.97;52.47;;;;;20.50;99731.00;;;;2034974;28;20217;-68
2023/03/22 04:46:42;;;;;;;64.93;51.55;;;;;20.50;99747.00;;;;2045546;28;20246;-68
2023/03/22 04:47:43;;;;;;;67.47;52.97;;;;;20.50;99726.00;;;;2039478;28;20221;-68
2023/03/22 04:48:43;;;;;;;60.90;50.30;;;;;20.50;99732.00;;;;2037016;28;20237;-68
2023/03/22 04:49:43;;;;;;;64.20;51.13;;;;;20.50;99727.00;;;;2037814;28;20236;-68
2023/03/22 04:50:44;;;;;;;65.10;50.00;;;;;20.50;99722.00;;;;2039078;28;20223;-68
2023/03/22 04:51:44;;;;;;;61.50;49.80;;;;;20.50;99716.00;;;;2038153;28;20221;-68
2023/03/22 04:52:46;;;;;;;64.20;51.37;;;;;20.50;99723.00;;;;2036371;28;20228;-68
2023/03/22 04:53:47;;;;;;;63.15;49.80;;;;;20.50;99734.00;;;;2015819;29;20268;-68
2023/03/22 04:54:47;;;;;;;61.60;49.07;;;;;20.50;99730.00;;;;2038906;29;20325;-68
2023/03/22 04:55:48;;;;;;;59.43;48.30;;;;;20.50;99656.00;;;;2035850;28;20241;-67
2023/03/22 04:56:48;;;;;;;57.83;47.40;;;;;20.50;99728.00;;;;2039061;28;20225;-68
2023/03/22 04:57:48;;;;;;;59.60;47.40;;;;;20.50;99735.00;;;;2040295;28;20224;-68
2023/03/22 04:58:49;;;;;;;59.17;44.80;;;;;20.50;99733.00;;;;2037722;28;20223;-67
2023/03/22 04:59:49;;;;;;;55.60;45.17;;;;;20.50;99735.00;;;;2017527;28;20238;-67
2023/03/22 05:00:51;;;;;;;57.10;45.37;;;;;20.50;99740.00;;;;2038806;28;20220;-68
2023/03/22 05:01:51;;;;;;;48.65;40.45;;;;;20.50;99737.00;;;;2037551;28;20225;-69
2023/03/22 05:02:52;;;;;;;52.00;42.67;;;;;20.50;99737.00;;;;2037668;28;20213;-68
2023/03/22 05:03:52;;;;;;;50.40;40.63;;;;;20.40;99738.00;;;;2016337;28;20243;-68
2023/03/22 05:04:52;;;;;;;48.03;40.00;;;;;20.50;99737.00;;;;2042808;28;20216;-68
2023/03/22 05:05:56;;;;;;;49.80;40.73;;;;;20.40;99735.00;;;;2023739;28;20243;-68
2023/03/22 05:06:57;;;;;;;45.85;37.95;;;;;20.50;99741.00;;;;2035741;28;20224;-68
2023/03/22 05:07:57;;;;;;;46.07;37.30;;;;;20.40;99737.00;;;;2038102;28;20232;-69
2023/03/22 05:08:58;;;;;;;47.83;38.20;;;;;20.50;99736.00;;;;2030824;28;20224;-68
2023/03/22 05:09:59;;;;;;;46.20;36.55;;;;;20.50;99722.00;;;;2037051;29;20213;-69
2023/03/22 05:11:04;;;;;;;43.63;35.80;;;;;20.50;99738.00;;;;2029264;29;20222;-68
2023/03/22 05:12:05;;;;;;;41.67;33.60;;;;;20.50;99739.00;;;;2035925;29;20225;-68
2023/03/22 05:13:05;;;;;;;43.53;34.10;;;;;20.50;99739.00;;;;2030277;28;20680;-68
2023/03/22 05:14:06;;;;;;;42.60;32.63;;;;;20.40;99741.00;;;;2047683;28;20212;-69
2023/03/22 05:15:07;;;;;;;42.63;32.83;;;;;20.50;99734.00;;;;2035752;28;20212;-68
2023/03/22 05:16:08;;;;;;;39.30;32.13;;;;;20.40;99734.00;;;;2038517;28;20260;-68
2023/03/22 05:17:09;;;;;;;39.47;30.87;;;;;20.40;99741.00;;;;2036943;28;20229;-68
2023/03/22 05:18:09;;;;;;;36.23;30.40;;;;;20.40;99732.00;;;;2036925;28;21000;-68